Time;durP1;ratioP1;P1;durP2;ratioP2;P2;SDS_P1;SDS_P2;PMS_P1;PMS_P2;Temp;Humidity;BMP_temperature;BMP_pressure;BME280_temperature;BME280_humidity;BME280_pressure;Samples;Min_cycle;Max_cycle;Signal;HPM_P1;HPM_P2
2022/04/14 00:01:51;;;;;;;22.40;12.47;;;14.30;99.90;;;;;;5070299;28;20195;-73
2022/04/14 00:04:18;;;;;;;19.63;11.63;;;14.30;99.90;;;;;;5071394;28;20202;-73
2022/04/14 00:06:45;;;;;;;20.00;12.67;;;14.20;99.90;;;;;;5051207;28;20755;-73
2022/04/14 00:09:12;;;;;;;23.07;12.70;;;14.20;99.90;;;;;;5060061;28;20202;-73
2022/04/14 00:11:41;;;;;;;20.10;12.57;;;14.10;99.90;;;;;;5070807;28;20202;-73
2022/04/14 00:14:08;;;;;;;19.83;12.53;;;14.10;99.90;;;;;;5071441;28;20659;-73
2022/04/14 00:16:35;;;;;;;23.17;12.90;;;14.10;99.90;;;;;;5070571;28;20256;-72
2022/04/14 00:19:02;;;;;;;23.20;12.67;;;14.00;99.90;;;;;;5070918;28;20198;-72
2022/04/14 00:21:29;;;;;;;20.27;12.10;;;14.10;99.90;;;;;;5069699;28;20271;-72
2022/04/14 00:23:56;;;;;;;19.57;11.73;;;14.10;99.90;;;;;;5070491;28;20190;-73
2022/04/14 00:26:23;;;;;;;20.83;11.30;;;14.00;99.90;;;;;;5069660;28;20230;-72
2022/04/14 00:28:51;;;;;;;17.80;11.27;;;13.90;99.90;;;;;;5061660;28;20592;-72
2022/04/14 00:31:18;;;;;;;22.70;11.87;;;14.00;99.90;;;;;;5050735;28;20427;-73
2022/04/14 00:33:45;;;;;;;19.80;11.07;;;14.00;99.90;;;;;;5050025;28;20723;-73
2022/04/14 00:36:12;;;;;;;20.33;11.27;;;14.00;99.90;;;;;;5061666;28;20248;-73
2022/04/14 00:38:39;;;;;;;19.40;11.73;;;14.00;99.90;;;;;;5070976;28;20260;-73
2022/04/14 00:41:06;;;;;;;19.07;11.27;;;14.00;99.90;;;;;;5068944;28;20272;-73
2022/04/14 00:43:35;;;;;;;23.67;12.30;;;14.00;99.90;;;;;;5070996;28;20198;-73
2022/04/14 00:46:04;;;;;;;23.07;11.47;;;14.00;99.90;;;;;;5070374;28;20680;-73
2022/04/14 00:48:32;;;;;;;18.30;11.53;;;13.90;99.90;;;;;;5070330;28;20202;-72
2022/04/14 00:51:00;;;;;;;21.07;11.70;;;14.00;99.90;;;;;;5050534;28;20214;-72
2022/04/14 00:53:27;;;;;;;18.63;11.37;;;14.00;99.90;;;;;;5070888;28;20205;-72
2022/04/14 00:55:54;;;;;;;19.10;11.53;;;14.00;99.90;;;;;;5069987;28;20211;-73
2022/04/14 00:58:21;;;;;;;20.10;11.50;;;14.10;99.90;;;;;;5069831;28;20259;-73
2022/04/14 01:00:49;;;;;;;21.13;11.60;;;14.00;99.90;;;;;;5068639;28;20198;-73
2022/04/14 01:03:18;;;;;;;21.33;11.57;;;14.00;99.90;;;;;;5069153;28;20190;-73
2022/04/14 01:05:46;;;;;;;18.77;10.60;;;13.90;99.90;;;;;;5069014;28;20313;-72
2022/04/14 01:08:17;;;;;;;17.87;11.23;;;13.90;99.90;;;;;;5065888;28;20191;-72
2022/04/14 01:10:48;;;;;;;19.67;11.73;;;13.90;99.90;;;;;;5067168;28;20237;-73
2022/04/14 01:13:15;;;;;;;18.40;11.50;;;14.00;99.90;;;;;;5067424;28;20206;-72
2022/04/14 01:15:43;;;;;;;19.83;11.57;;;14.00;99.90;;;;;;5070191;28;20680;-73
2022/04/14 01:18:10;;;;;;;18.07;11.57;;;14.00;99.90;;;;;;5063270;28;20560;-72
2022/04/14 01:20:41;;;;;;;19.83;11.17;;;14.00;99.90;;;;;;5053805;28;20207;-72
2022/04/14 01:23:09;;;;;;;18.27;11.37;;;13.90;99.90;;;;;;5056877;28;20213;-72
2022/04/14 01:25:38;;;;;;;20.20;11.40;;;14.00;99.90;;;;;;5056629;28;20222;-73
2022/04/14 01:28:07;;;;;;;21.07;12.03;;;14.00;99.90;;;;;;5068569;28;20259;-72
2022/04/14 01:30:35;;;;;;;17.50;11.43;;;14.00;99.90;;;;;;5068268;28;20201;-72
2022/04/14 01:33:02;;;;;;;20.03;11.60;;;13.90;99.90;;;;;;5069379;28;20577;-73
2022/04/14 01:35:29;;;;;;;21.77;12.10;;;13.90;99.90;;;;;;5070454;28;20194;-72
2022/04/14 01:37:56;;;;;;;17.80;11.57;;;13.90;99.90;;;;;;5057329;28;20245;-73
2022/04/14 01:40:23;;;;;;;20.70;11.33;;;13.90;99.90;;;;;;5047496;28;20194;-72
2022/04/14 01:42:51;;;;;;;19.03;11.30;;;13.90;99.90;;;;;;5060946;28;20249;-72
2022/04/14 01:45:18;;;;;;;20.50;12.20;;;13.80;99.90;;;;;;5069766;28;20275;-73
2022/04/14 01:47:46;;;;;;;21.33;12.50;;;13.90;99.90;;;;;;5069000;28;20272;-72
2022/04/14 01:50:15;;;;;;;19.57;11.33;;;13.90;99.90;;;;;;5069860;28;20649;-72
2022/04/14 01:52:44;;;;;;;20.87;11.77;;;13.80;99.90;;;;;;5069501;28;20315;-73
2022/04/14 01:55:12;;;;;;;22.63;12.40;;;13.90;99.90;;;;;;5070137;28;20627;-72
2022/04/14 01:57:39;;;;;;;19.43;12.20;;;13.90;99.90;;;;;;5069409;28;20203;-72
2022/04/14 02:00:10;;;;;;;17.93;11.30;;;13.90;99.90;;;;;;5066017;28;20192;-72
2022/04/14 02:02:37;;;;;;;20.40;11.53;;;13.90;99.90;;;;;;5049674;28;20256;-72
2022/04/14 02:05:05;;;;;;;18.83;11.30;;;13.80;99.90;;;;;;5065406;28;20202;-73
2022/04/14 02:07:32;;;;;;;21.57;12.10;;;13.90;99.90;;;;;;5058997;28;20339;-72
2022/04/14 02:09:59;;;;;;;18.83;11.67;;;14.00;99.90;;;;;;5068791;28;20248;-72
2022/04/14 02:12:26;;;;;;;21.67;11.63;;;14.10;99.90;;;;;;5050855;28;20264;-73
2022/04/14 02:14:53;;;;;;;18.17;11.00;;;14.00;99.90;;;;;;5050293;28;20199;-73
2022/04/14 02:17:22;;;;;;;20.80;11.70;;;14.10;99.90;;;;;;5048249;28;20211;-73
2022/04/14 02:19:49;;;;;;;20.30;12.03;;;14.10;99.90;;;;;;5069855;28;20252;-72
2022/04/14 02:22:16;;;;;;;20.77;12.43;;;14.10;99.90;;;;;;5070566;28;20252;-73
2022/04/14 02:24:43;;;;;;;20.70;11.97;;;14.10;99.90;;;;;;5069987;28;20186;-72
2022/04/14 02:27:10;;;;;;;19.83;13.20;;;14.00;99.90;;;;;;5070734;28;20688;-72
2022/04/14 02:29:38;;;;;;;20.93;12.63;;;14.00;99.90;;;;;;5050334;28;20199;-73
2022/04/14 02:32:05;;;;;;;21.77;12.63;;;14.10;99.90;;;;;;5053806;28;20203;-73
2022/04/14 02:34:34;;;;;;;21.93;13.80;;;14.10;99.90;;;;;;5053568;28;20264;-72
2022/04/14 02:37:01;;;;;;;22.00;13.37;;;14.10;99.90;;;;;;5053968;28;20199;-72
2022/04/14 02:39:28;;;;;;;27.43;14.37;;;13.90;99.90;;;;;;5053625;28;20203;-73
2022/04/14 02:41:55;;;;;;;22.43;14.53;;;13.80;99.90;;;;;;5054254;28;20203;-73
2022/04/14 02:44:22;;;;;;;21.67;13.67;;;13.90;99.90;;;;;;5071361;28;20198;-73
2022/04/14 02:46:49;;;;;;;22.40;13.97;;;13.80;99.90;;;;;;5073302;28;20213;-73
2022/04/14 02:49:16;;;;;;;22.00;13.10;;;13.80;99.90;;;;;;5072991;28;20248;-72
2022/04/14 02:51:44;;;;;;;23.40;13.70;;;13.70;99.90;;;;;;5073350;28;20199;-73
2022/04/14 02:54:11;;;;;;;20.10;12.43;;;13.70;99.90;;;;;;5073113;28;20715;-73
2022/04/14 02:56:38;;;;;;;21.80;13.00;;;13.70;99.90;;;;;;5073412;28;20202;-72
2022/04/14 02:59:05;;;;;;;21.03;12.50;;;13.60;99.90;;;;;;5073133;28;20218;-73
2022/04/14 03:01:32;;;;;;;21.53;13.20;;;13.50;99.90;;;;;;5073048;28;20235;-72
2022/04/14 03:03:59;;;;;;;19.67;12.07;;;13.60;99.90;;;;;;5073906;28;20221;-72
2022/04/14 03:06:26;;;;;;;19.03;11.60;;;13.60;99.90;;;;;;5055424;28;20227;-72
2022/04/14 03:08:54;;;;;;;19.97;12.63;;;13.50;99.90;;;;;;5052948;28;20199;-72
2022/04/14 03:11:21;;;;;;;22.27;12.90;;;13.50;99.90;;;;;;5053390;28;20206;-73
2022/04/14 03:13:48;;;;;;;20.67;12.63;;;13.50;99.90;;;;;;5053247;28;20219;-73
2022/04/14 03:16:16;;;;;;;19.73;12.00;;;13.50;99.90;;;;;;5052892;28;20191;-72
2022/04/14 03:18:43;;;;;;;19.67;11.53;;;13.50;99.90;;;;;;5052640;28;20289;-73
2022/04/14 03:21:11;;;;;;;33.37;27.93;;;13.40;99.90;;;;;;5068642;28;20261;-72
2022/04/14 03:23:39;;;;;;;21.60;13.10;;;13.40;99.90;;;;;;5055818;28;20313;-72
2022/04/14 03:26:08;;;;;;;14.63;8.70;;;13.30;99.90;;;;;;5073129;28;20229;-72
2022/04/14 03:28:36;;;;;;;14.20;8.17;;;13.40;99.90;;;;;;5067602;28;20291;-72
2022/04/14 03:31:04;;;;;;;11.60;7.37;;;13.20;99.90;;;;;;5065164;28;20206;-72
2022/04/14 03:33:31;;;;;;;11.13;7.17;;;13.20;99.90;;;;;;5073466;28;20210;-74
2022/04/14 03:35:58;;;;;;;12.93;7.00;;;13.20;99.90;;;;;;5073892;28;20660;-72
2022/04/14 03:38:25;;;;;;;9.13;6.30;;;13.10;99.90;;;;;;5073352;28;20297;-73
2022/04/14 03:40:51;;;;;;;10.40;6.40;;;13.10;99.90;;;;;;5067779;28;20199;-72
2022/04/14 03:43:20;;;;;;;10.77;6.60;;;13.20;99.90;;;;;;5061494;28;20194;-72
2022/04/14 03:45:47;;;;;;;10.97;5.70;;;13.20;99.90;;;;;;5073166;28;20209;-72
2022/04/14 03:48:13;;;;;;;9.13;6.00;;;13.10;99.90;;;;;;5072009;28;20198;-72
2022/04/14 03:50:40;;;;;;;9.67;6.33;;;13.10;99.90;;;;;;5071663;28;20198;-72
2022/04/14 03:53:07;;;;;;;8.37;5.43;;;13.10;99.90;;;;;;5065833;28;20201;-72
2022/04/14 03:55:34;;;;;;;8.30;5.17;;;13.10;99.90;;;;;;5058590;28;20572;-72
2022/04/14 03:58:01;;;;;;;8.30;5.70;;;13.10;99.90;;;;;;5056062;28;20199;-72
2022/04/14 04:00:29;;;;;;;8.57;4.97;;;13.00;99.90;;;;;;5060887;28;20616;-72
2022/04/14 04:02:57;;;;;;;7.93;4.90;;;13.10;99.90;;;;;;5071659;28;20191;-72
2022/04/14 04:05:24;;;;;;;7.40;4.90;;;13.00;99.90;;;;;;5063775;28;20653;-72
2022/04/14 04:07:51;;;;;;;8.00;4.73;;;12.90;99.90;;;;;;5056924;28;20222;-72
2022/04/14 04:10:18;;;;;;;6.80;4.90;;;12.90;99.90;;;;;;5053259;28;20669;-72
2022/04/14 04:12:44;;;;;;;8.97;4.70;;;12.90;99.90;;;;;;5053022;28;20195;-72
2022/04/14 04:15:12;;;;;;;7.43;4.67;;;12.90;99.90;;;;;;5062375;28;20186;-73
2022/04/14 04:17:40;;;;;;;5.60;4.23;;;12.90;99.90;;;;;;5070978;28;20685;-72
2022/04/14 04:20:08;;;;;;;7.37;4.60;;;12.90;99.90;;;;;;5068771;28;20664;-74
2022/04/14 04:22:35;;;;;;;6.40;4.40;;;12.90;99.90;;;;;;5051879;28;20213;-74
2022/04/14 04:25:03;;;;;;;6.13;4.67;;;12.90;99.90;;;;;;5053091;28;20199;-72
2022/04/14 04:27:30;;;;;;;6.20;4.50;;;12.80;99.90;;;;;;5064438;28;20315;-72
2022/04/14 04:29:57;;;;;;;6.53;4.03;;;12.80;99.90;;;;;;5071570;28;20198;-73
2022/04/14 04:32:24;;;;;;;6.73;4.40;;;12.70;99.90;;;;;;5065533;28;20203;-73
2022/04/14 04:34:52;;;;;;;7.70;5.10;;;12.70;99.90;;;;;;5052054;28;20199;-73
2022/04/14 04:37:19;;;;;;;6.33;4.60;;;12.80;99.90;;;;;;5055701;28;20567;-72
2022/04/14 04:39:46;;;;;;;8.53;5.60;;;12.80;99.90;;;;;;5056201;28;20492;-73
2022/04/14 04:42:13;;;;;;;7.37;5.47;;;12.70;99.90;;;;;;5067296;28;20220;-73
2022/04/14 04:44:40;;;;;;;7.07;5.70;;;12.70;99.90;;;;;;5063397;28;20216;-72
2022/04/14 04:47:07;;;;;;;8.30;5.40;;;12.70;99.90;;;;;;5055978;28;20223;-72
2022/04/14 04:49:34;;;;;;;7.77;4.97;;;12.70;99.90;;;;;;5052792;28;20203;-72
2022/04/14 04:52:03;;;;;;;6.87;5.07;;;12.60;99.90;;;;;;5062321;28;20211;-72
2022/04/14 04:54:29;;;;;;;10.77;6.13;;;12.60;99.90;;;;;;5070152;28;20641;-72
2022/04/14 04:56:56;;;;;;;11.30;7.47;;;12.60;99.90;;;;;;5072034;28;20664;-73
2022/04/14 04:59:23;;;;;;;9.63;5.53;;;12.70;99.90;;;;;;5065504;28;20238;-72
2022/04/14 05:01:50;;;;;;;7.97;5.77;;;12.70;99.90;;;;;;5056643;28;20191;-73
2022/04/14 05:04:17;;;;;;;8.50;5.80;;;12.70;99.90;;;;;;5071183;28;20198;-73
2022/04/14 05:06:44;;;;;;;10.80;5.90;;;12.80;99.90;;;;;;5069895;28;20224;-73
2022/04/14 05:09:12;;;;;;;9.43;5.47;;;12.90;99.90;;;;;;5065069;28;20200;-73
2022/04/14 05:11:39;;;;;;;8.80;5.87;;;12.70;99.90;;;;;;5069859;28;20206;-73
2022/04/14 05:14:06;;;;;;;11.47;6.33;;;12.70;99.90;;;;;;5071661;28;20199;-73
2022/04/14 05:16:32;;;;;;;9.00;5.70;;;12.70;99.90;;;;;;5072535;28;20213;-72
2022/04/14 05:18:59;;;;;;;8.37;5.77;;;12.80;99.90;;;;;;5066700;28;20213;-72
2022/04/14 05:21:26;;;;;;;11.20;6.23;;;12.80;99.90;;;;;;5067119;28;20659;-73
2022/04/14 05:23:53;;;;;;;7.50;6.03;;;12.70;99.90;;;;;;5056646;28;20199;-73
2022/04/14 05:26:21;;;;;;;8.23;6.17;;;12.80;99.90;;;;;;5051632;28;20324;-73
2022/04/14 05:28:48;;;;;;;9.07;6.23;;;12.80;99.90;;;;;;5069842;28;20206;-73
2022/04/14 05:31:15;;;;;;;8.90;5.93;;;12.70;99.90;;;;;;5071296;28;20198;-74
2022/04/14 05:33:41;;;;;;;9.77;6.70;;;12.80;99.90;;;;;;5070012;28;20235;-73
2022/04/14 05:36:08;;;;;;;7.53;6.23;;;12.90;99.90;;;;;;5072071;28;20217;-73
2022/04/14 05:38:35;;;;;;;11.13;6.90;;;12.90;99.90;;;;;;5057523;28;20194;-73
2022/04/14 05:41:02;;;;;;;9.67;6.67;;;12.90;99.90;;;;;;5050991;28;20205;-73
2022/04/14 05:43:30;;;;;;;9.13;6.07;;;12.80;99.90;;;;;;5069441;28;20224;-73
2022/04/14 05:45:57;;;;;;;10.13;6.37;;;12.80;99.90;;;;;;5065467;28;20642;-73
2022/04/14 05:48:24;;;;;;;8.47;6.20;;;12.90;99.90;;;;;;5052671;28;20233;-73
2022/04/14 05:50:51;;;;;;;9.23;6.33;;;12.90;99.90;;;;;;5050542;28;20634;-73
2022/04/14 05:53:20;;;;;;;10.70;6.47;;;12.80;99.90;;;;;;5070530;28;20259;-72
2022/04/14 05:55:48;;;;;;;7.70;5.50;;;12.90;99.90;;;;;;5055640;28;20618;-72
2022/04/14 05:58:16;;;;;;;8.70;6.17;;;12.90;99.90;;;;;;5051048;28;20657;-72
2022/04/14 06:00:44;;;;;;;9.47;6.10;;;12.90;99.90;;;;;;5050539;28;20664;-73
2022/04/14 06:03:12;;;;;;;7.07;5.23;;;13.00;99.90;;;;;;5069020;28;20206;-73
2022/04/14 06:05:38;;;;;;;8.27;5.73;;;12.90;99.90;;;;;;5054158;28;20569;-73
2022/04/14 06:08:06;;;;;;;8.50;6.07;;;12.90;99.90;;;;;;5068588;28;20214;-73
2022/04/14 06:10:35;;;;;;;8.57;6.23;;;12.90;99.90;;;;;;5067370;28;20191;-72
2022/04/14 06:13:01;;;;;;;11.30;6.10;;;13.00;99.90;;;;;;5069351;28;20206;-74
2022/04/14 06:15:30;;;;;;;9.03;6.60;;;13.00;99.90;;;;;;5055268;28;20199;-77
2022/04/14 06:17:58;;;;;;;10.27;6.37;;;13.00;99.90;;;;;;5057972;28;20233;-77
2022/04/14 06:20:25;;;;;;;9.20;6.70;;;12.90;99.90;;;;;;5071398;28;20198;-77
2022/04/14 06:22:52;;;;;;;9.80;6.10;;;12.90;99.90;;;;;;5068285;28;20201;-77
2022/04/14 06:25:22;;;;;;;9.90;6.70;;;12.90;99.90;;;;;;5064865;28;20571;-77
2022/04/14 06:27:50;;;;;;;9.73;6.80;;;13.00;99.90;;;;;;5066711;28;20669;-77
2022/04/14 06:30:19;;;;;;;11.00;6.30;;;12.90;99.90;;;;;;5067093;28;20205;-77
2022/04/14 06:32:55;;;;;;;9.80;6.47;;;13.00;99.90;;;;;;5070571;28;20635;-77
2022/04/14 06:35:24;;;;;;;11.03;7.03;;;12.90;99.90;;;;;;5065654;28;20203;-72
2022/04/14 06:37:51;;;;;;;9.97;7.50;;;12.90;99.90;;;;;;5068478;28;20195;-73
2022/04/14 06:40:17;;;;;;;13.30;7.93;;;12.90;99.90;;;;;;5073141;28;20198;-73
2022/04/14 06:42:44;;;;;;;13.13;7.67;;;12.90;99.90;;;;;;5061944;28;20203;-74
2022/04/14 06:45:11;;;;;;;12.50;7.90;;;12.90;99.90;;;;;;5070556;28;20536;-72
2022/04/14 06:47:38;;;;;;;12.73;7.90;;;12.90;99.90;;;;;;5074149;28;20228;-72
2022/04/14 06:50:06;;;;;;;14.00;8.63;;;13.00;99.90;;;;;;5063731;28;20210;-72
2022/04/14 06:52:34;;;;;;;14.37;8.20;;;13.00;99.90;;;;;;5069657;28;20214;-72
2022/04/14 06:55:02;;;;;;;14.57;9.23;;;13.00;99.90;;;;;;5065811;28;20575;-73
2022/04/14 06:57:28;;;;;;;13.13;9.10;;;13.10;99.90;;;;;;5050528;28;20269;-72
2022/04/14 06:59:55;;;;;;;15.87;9.67;;;13.10;99.90;;;;;;5055675;28;20285;-72
2022/04/14 07:02:22;;;;;;;13.43;9.67;;;13.10;99.90;;;;;;5061130;28;20681;-73
2022/04/14 07:04:49;;;;;;;14.67;9.67;;;13.10;99.90;;;;;;5049617;28;20209;-72
2022/04/14 07:07:16;;;;;;;15.50;9.60;;;13.20;99.90;;;;;;5059271;28;20229;-72
2022/04/14 07:09:44;;;;;;;15.10;9.50;;;13.30;99.90;;;;;;5069120;28;20198;-72
2022/04/14 07:12:11;;;;;;;18.37;10.50;;;13.30;99.90;;;;;;5071552;28;20667;-72
2022/04/14 07:14:39;;;;;;;15.20;10.10;;;13.20;99.90;;;;;;5059750;28;20206;-72
2022/04/14 07:17:07;;;;;;;14.90;10.20;;;13.20;99.90;;;;;;5061349;28;20219;-72
2022/04/14 07:19:34;;;;;;;17.17;11.30;;;13.30;99.90;;;;;;5070477;28;20222;-73
2022/04/14 07:22:01;;;;;;;16.37;11.10;;;13.30;99.90;;;;;;5073262;28;20236;-72
2022/04/14 07:24:27;;;;;;;17.93;12.23;;;13.30;99.90;;;;;;5069638;28;20291;-73
2022/04/14 07:26:56;;;;;;;17.10;11.53;;;13.40;99.90;;;;;;5065794;28;20186;-73
2022/04/14 07:29:22;;;;;;;18.23;12.33;;;13.40;99.90;;;;;;5072681;28;20198;-73
2022/04/14 07:31:50;;;;;;;17.20;11.23;;;13.40;99.90;;;;;;5072874;28;20214;-73
2022/04/14 07:34:17;;;;;;;15.53;11.00;;;13.50;99.90;;;;;;5073417;28;20202;-73
2022/04/14 07:36:44;;;;;;;15.93;9.90;;;13.50;99.90;;;;;;5073545;28;20209;-72
2022/04/14 07:39:11;;;;;;;15.93;10.73;;;13.50;99.90;;;;;;5071495;28;20218;-73
2022/04/14 07:41:37;;;;;;;17.77;10.80;;;13.50;99.90;;;;;;5072856;28;20216;-72
2022/04/14 07:44:06;;;;;;;15.00;9.93;;;13.60;99.90;;;;;;5053013;28;20206;-73
2022/04/14 07:46:35;;;;;;;18.23;11.30;;;13.60;99.90;;;;;;5053096;28;20662;-73
2022/04/14 07:49:02;;;;;;;17.87;11.47;;;13.60;99.90;;;;;;5054348;28;20223;-73
2022/04/14 07:51:29;;;;;;;17.90;10.70;;;13.60;99.90;;;;;;5056434;28;20206;-72
2022/04/14 07:53:56;;;;;;;16.63;11.33;;;13.60;99.90;;;;;;5067216;28;20199;-73
2022/04/14 07:56:23;;;;;;;17.00;10.57;;;13.60;99.90;;;;;;5072951;28;20572;-73
2022/04/14 07:58:50;;;;;;;15.57;10.30;;;13.70;99.90;;;;;;5071713;28;20550;-73
2022/04/14 08:01:19;;;;;;;18.27;10.63;;;13.70;99.90;;;;;;5072620;28;20205;-73
2022/04/14 08:03:47;;;;;;;17.20;10.87;;;13.60;99.90;;;;;;5057720;28;20712;-73
2022/04/14 08:06:14;;;;;;;17.20;11.60;;;13.60;99.90;;;;;;5053940;28;20198;-73
2022/04/14 08:08:41;;;;;;;18.90;11.43;;;13.60;99.90;;;;;;5070721;28;20233;-73
2022/04/14 08:11:10;;;;;;;16.90;10.93;;;13.50;99.90;;;;;;5072874;28;20229;-72
2022/04/14 08:13:38;;;;;;;16.83;10.77;;;13.60;99.90;;;;;;5056204;28;20195;-73
2022/04/14 08:16:06;;;;;;;18.17;11.23;;;13.60;99.90;;;;;;5057412;28;20241;-72
2022/04/14 08:18:36;;;;;;;17.63;11.47;;;13.70;99.90;;;;;;5056879;28;20226;-73
2022/04/14 08:21:03;;;;;;;14.60;9.77;;;13.80;99.90;;;;;;5051917;28;20661;-73
2022/04/14 08:23:30;;;;;;;16.47;10.50;;;13.80;99.90;;;;;;5056732;28;20294;-73
2022/04/14 08:25:57;;;;;;;17.83;11.07;;;13.90;99.90;;;;;;5058542;28;20199;-73
2022/04/14 08:28:24;;;;;;;15.30;10.27;;;14.00;99.90;;;;;;5072140;28;20222;-72
2022/04/14 08:30:52;;;;;;;15.80;10.67;;;13.90;99.90;;;;;;5066585;28;20633;-72
2022/04/14 08:33:20;;;;;;;16.47;10.43;;;13.90;99.90;;;;;;5055714;28;20215;-73
2022/04/14 08:35:49;;;;;;;16.03;9.97;;;13.90;99.90;;;;;;5056214;28;20190;-73
2022/04/14 08:38:16;;;;;;;18.77;10.97;;;14.00;99.90;;;;;;5052025;28;20272;-73
2022/04/14 08:40:48;;;;;;;16.67;10.30;;;14.00;99.90;;;;;;5053060;28;20201;-72
2022/04/14 08:43:18;;;;;;;17.73;10.20;;;14.10;99.90;;;;;;5071717;28;20202;-72
2022/04/14 08:45:47;;;;;;;18.47;11.13;;;14.10;99.90;;;;;;5069211;28;20206;-73
2022/04/14 08:48:15;;;;;;;16.97;11.63;;;14.10;99.90;;;;;;5071474;28;20309;-73
2022/04/14 08:50:43;;;;;;;17.23;10.47;;;14.10;99.90;;;;;;5058052;28;20231;-73
2022/04/14 08:53:12;;;;;;;19.83;10.57;;;14.30;99.90;;;;;;5062781;28;20593;-73
2022/04/14 08:55:41;;;;;;;18.03;10.87;;;14.30;99.90;;;;;;5056546;28;20198;-73
2022/04/14 08:58:13;;;;;;;18.47;11.07;;;14.40;99.90;;;;;;5071747;28;20202;-73
2022/04/14 09:00:40;;;;;;;18.33;11.53;;;14.40;99.90;;;;;;5067673;28;20203;-73
2022/04/14 09:03:07;;;;;;;17.43;11.83;;;14.50;99.90;;;;;;5052006;28;20191;-73
2022/04/14 09:05:34;;;;;;;17.63;10.73;;;14.60;99.90;;;;;;5055285;28;20556;-73
2022/04/14 09:08:01;;;;;;;16.10;9.90;;;14.70;99.90;;;;;;5069687;28;20246;-73
2022/04/14 09:10:29;;;;;;;15.57;9.20;;;14.80;99.90;;;;;;5070840;28;20206;-72
2022/04/14 09:12:57;;;;;;;14.57;9.60;;;14.80;99.90;;;;;;5071906;28;20213;-73
2022/04/14 09:15:24;;;;;;;15.80;9.23;;;14.80;99.90;;;;;;5072329;28;20565;-72
2022/04/14 09:17:51;;;;;;;14.87;9.30;;;15.10;99.90;;;;;;5068151;28;20640;-73
2022/04/14 09:20:36;;;;;;;15.70;9.73;;;15.10;99.90;;;;;;5056246;28;20825;-72
2022/04/14 09:23:18;;;;;;;17.00;9.83;;;15.30;99.90;;;;;;5066520;28;20210;-73
2022/04/14 09:25:48;;;;;;;14.73;9.13;;;15.30;99.90;;;;;;5070983;28;20229;-73
2022/04/14 09:28:17;;;;;;;15.37;8.80;;;15.70;99.90;;;;;;5070502;28;20700;-73
2022/04/14 09:30:59;;;;;;;14.23;8.77;;;15.80;99.90;;;;;;5070499;28;20567;-73
2022/04/14 09:33:27;;;;;;;16.33;9.20;;;15.70;99.90;;;;;;5064873;28;20222;-73
2022/04/14 09:36:07;;;;;;;13.02;8.95;;;15.80;99.90;;;;;;5071329;28;20206;-73
2022/04/14 09:38:50;;;;;;;13.97;9.03;;;15.50;99.90;;;;;;5072882;28;20198;-73
2022/04/14 09:41:33;;;;;;;17.67;9.30;;;15.50;99.90;;;;;;5058893;28;20202;-73
2022/04/14 09:44:02;;;;;;;15.30;9.15;;;15.50;99.90;;;;;;5055098;28;20210;-73
2022/04/14 09:46:29;;;;;;;14.47;8.70;;;15.70;99.90;;;;;;5061631;28;20214;-72
2022/04/14 09:49:07;;;;;;;13.52;7.95;;;15.70;99.90;;;;;;5075471;28;20688;-72
2022/04/14 09:51:35;;;;;;;16.85;8.48;;;15.70;99.90;;;;;;5058936;28;20199;-72
2022/04/14 09:54:12;;;;;;;14.27;8.57;;;15.70;99.90;;;;;;5068819;28;20294;-72
2022/04/14 09:56:49;;;;;;;17.27;9.45;;;15.80;99.90;;;;;;5068323;28;20202;-72
2022/04/14 09:59:17;;;;;;;14.00;8.27;;;16.00;99.90;;;;;;5070110;28;20205;-72
2022/04/14 10:01:45;;;;;;;16.30;9.40;;;16.00;99.90;;;;;;5068993;28;20199;-73
2022/04/14 10:04:32;;;;;;;16.92;8.80;;;16.20;99.90;;;;;;5071262;28;20198;-72
2022/04/14 10:07:04;;;;;;;14.60;9.35;;;16.20;99.90;;;;;;5066842;28;20205;-72
2022/04/14 10:09:31;;;;;;;13.65;8.50;;;16.40;99.90;;;;;;5069285;28;20229;-72
2022/04/14 10:12:00;;;;;;;13.80;8.68;;;16.50;99.90;;;;;;5065588;28;20559;-72
2022/04/14 10:14:27;;;;;;;12.93;8.40;;;16.60;1.00;;;;;;5067631;28;20199;-73
2022/04/14 10:16:54;;;;;;;19.02;9.30;;;16.80;15.50;;;;;;5069109;28;20202;-72
2022/04/14 10:19:22;;;;;;;15.18;8.55;;;16.70;23.90;;;;;;5068910;28;20198;-73
2022/04/14 10:21:50;;;;;;;14.18;8.55;;;16.70;1.00;;;;;;5067807;28;20218;-72
2022/04/14 10:24:19;;;;;;;14.05;8.60;;;16.70;1.00;;;;;;5065538;28;20198;-72
2022/04/14 10:26:46;;;;;;;13.70;8.80;;;16.60;1.00;;;;;;5067666;28;20271;-72
2022/04/14 10:29:17;;;;;;;15.18;8.80;;;16.70;1.00;;;;;;5063827;28;20677;-72
2022/04/14 10:31:45;;;;;;;12.52;8.60;;;16.70;1.00;;;;;;5068907;28;20649;-72
2022/04/14 10:34:15;;;;;;;15.20;8.60;;;16.70;1.00;;;;;;5069937;28;20225;-73
2022/04/14 10:36:45;;;;;;;14.63;8.30;;;16.80;1.00;;;;;;5068066;28;20203;-72
2022/04/14 10:39:15;;;;;;;17.10;8.25;;;16.80;1.00;;;;;;5067950;28;20535;-73
2022/04/14 10:41:48;;;;;;;13.18;7.90;;;16.70;1.00;;;;;;5064169;28;20217;-72
2022/04/14 10:44:21;;;;;;;13.77;8.38;;;16.60;1.00;;;;;;5067583;28;20286;-72
2022/04/14 10:46:50;;;;;;;14.05;8.65;;;16.60;1.00;;;;;;5065871;28;20233;-72
2022/04/14 10:49:22;;;;;;;14.20;8.57;;;16.70;1.00;;;;;;5071209;28;20226;-72
2022/04/14 10:51:53;;;;;;;14.93;8.25;;;17.00;99.90;;;;;;5069625;28;20202;-73
2022/04/14 10:54:20;;;;;;;14.77;8.45;;;17.20;99.90;;;;;;5064310;28;20206;-72
2022/04/14 10:56:51;;;;;;;18.27;8.90;;;17.30;39.70;;;;;;5066618;28;20206;-72
2022/04/14 10:59:43;;;;;;;15.40;8.45;;;17.40;1.00;;;;;;5070552;28;20197;-72
2022/04/14 11:02:10;;;;;;;12.40;8.23;;;17.20;1.00;;;;;;5073045;28;20202;-72
2022/04/14 11:04:50;;;;;;;14.80;8.82;;;17.50;1.00;;;;;;5073473;28;20207;-73
2022/04/14 11:07:18;;;;;;;13.80;9.75;;;17.60;1.00;;;;;;5074428;28;20206;-72
2022/04/14 11:09:57;;;;;;;15.65;8.18;;;17.80;1.00;;;;;;5067307;28;20226;-73
2022/04/14 11:12:25;;;;;;;13.63;8.00;;;18.10;1.00;;;;;;5067424;28;20213;-72
2022/04/14 11:14:56;;;;;;;11.32;7.75;;;18.20;1.00;;;;;;5072030;28;20668;-72
2022/04/14 11:17:53;;;;;;;13.55;8.60;;;18.20;99.90;;;;;;5073558;28;20203;-72
2022/04/14 11:20:22;;;;;;;10.38;6.90;;;18.60;1.00;;;;;;5071916;28;20210;-73
2022/04/14 11:23:06;;;;;;;12.65;8.27;;;18.80;99.90;;;;;;5073385;28;20280;-72
2022/04/14 11:25:46;;;;;;;13.05;7.65;;;19.10;99.90;;;;;;5057616;28;20207;-73
2022/04/14 11:28:26;;;;;;;10.27;7.00;;;19.10;1.00;;;;;;5053900;28;20203;-73
2022/04/14 11:30:56;;;;;;;9.15;6.63;;;18.80;1.00;;;;;;5052484;28;20214;-73
2022/04/14 11:33:27;;;;;;;9.20;7.00;;;18.80;1.00;;;;;;5067909;28;20218;-73
2022/04/14 11:35:55;;;;;;;12.55;6.50;;;19.50;1.00;;;;;;5074139;28;20240;-73
2022/04/14 11:38:53;;;;;;;10.85;6.75;;;19.50;99.90;;;;;;5066481;28;20199;-73
2022/04/14 11:41:32;;;;;;;10.13;6.68;;;19.20;1.00;;;;;;5052799;28;20602;-73
2022/04/14 11:44:00;;;;;;;11.77;7.35;;;19.00;99.90;;;;;;5070329;28;20199;-73
2022/04/14 11:46:29;;;;;;;10.05;6.90;;;18.90;99.90;;;;;;5071819;28;20214;-73
2022/04/14 11:48:57;;;;;;;11.98;7.32;;;18.90;1.00;;;;;;5072218;28;20218;-73
2022/04/14 11:51:23;;;;;;;11.30;7.60;;;18.70;99.90;;;;;;5067943;28;20629;-73
2022/04/14 11:53:53;;;;;;;11.20;7.13;;;18.50;1.00;;;;;;5052814;28;20399;-73
2022/04/14 11:56:20;;;;;;;10.50;7.38;;;18.40;1.00;;;;;;5056105;28;20242;-73
2022/04/14 11:58:48;;;;;;;9.57;7.18;;;18.80;1.00;;;;;;5071744;28;20202;-73
2022/04/14 12:01:15;;;;;;;9.88;6.35;;;18.70;1.00;;;;;;5058397;28;20199;-73
2022/04/14 12:03:44;;;;;;;10.15;6.70;;;18.70;1.00;;;;;;5067056;28;20229;-73
2022/04/14 12:06:14;;;;;;;12.05;6.93;;;19.00;99.90;;;;;;5068330;28;20281;-73
2022/04/14 12:08:41;;;;;;;10.70;6.97;;;19.00;25.30;;;;;;5073149;28;20226;-73
2022/04/14 12:11:11;;;;;;;10.98;7.20;;;19.00;1.00;;;;;;5071145;28;20566;-73
2022/04/14 12:13:39;;;;;;;13.20;6.97;;;19.00;72.50;;;;;;5073090;28;20685;-73
2022/04/14 12:16:08;;;;;;;8.45;6.15;;;19.50;1.00;;;;;;5064541;28;20605;-73
2022/04/14 12:18:35;;;;;;;10.32;6.22;;;19.90;1.00;;;;;;5065821;28;20197;-73
2022/04/14 12:21:04;;;;;;;9.15;6.30;;;20.50;1.00;;;;;;5062098;28;20203;-73
2022/04/14 12:23:31;;;;;;;9.13;6.45;;;20.80;99.90;;;;;;5068839;28;20210;-73
2022/04/14 12:25:59;;;;;;;9.95;6.47;;;19.80;1.00;;;;;;5067381;28;20205;-73
2022/04/14 12:28:26;;;;;;;10.70;7.05;;;19.50;1.00;;;;;;5065191;28;20632;-73
2022/04/14 12:30:53;;;;;;;17.08;10.18;;;19.30;99.90;;;;;;5065395;28;20573;-73
2022/04/14 12:33:27;;;;;;;11.20;6.55;;;19.10;99.90;;;;;;5066325;28;20384;-73
2022/04/14 12:36:08;;;;;;;9.43;6.32;;;18.80;1.00;;;;;;5063066;28;20203;-73
2022/04/14 12:38:45;;;;;;;10.68;6.82;;;18.80;1.00;;;;;;5061341;28;20206;-73
2022/04/14 12:41:19;;;;;;;11.00;6.60;;;18.90;99.90;;;;;;5067671;28;20206;-73
2022/04/14 12:43:48;;;;;;;9.60;6.20;;;18.70;99.90;;;;;;5066640;28;20285;-73